createdAt,value
2017-07-04T00:00:34.938Z,18.35
2017-07-04T00:01:15.463Z,18.32
2017-07-04T00:01:56.005Z,18.37
2017-07-04T00:02:36.544Z,18.42
2017-07-04T00:03:17.138Z,18.37
2017-07-04T00:03:57.679Z,18.42
2017-07-04T00:04:38.213Z,18.39
2017-07-04T00:05:18.757Z,18.32
2017-07-04T00:05:59.291Z,18.3
2017-07-04T00:06:39.847Z,18.26
2017-07-04T00:07:20.376Z,18.23
2017-07-04T00:08:00.924Z,18.26
2017-07-04T00:08:41.470Z,18.17
2017-07-04T00:09:22.013Z,18.21
2017-07-04T00:10:02.556Z,18.23
2017-07-04T00:10:43.102Z,18.17
2017-07-04T00:11:23.645Z,18.2
2017-07-04T00:12:04.189Z,18.11
2017-07-04T00:12:44.725Z,18.15
2017-07-04T00:13:25.268Z,18.15
2017-07-04T00:14:05.805Z,18.17
2017-07-04T00:14:46.335Z,18.15
2017-07-04T00:15:26.881Z,18.11
2017-07-04T00:16:07.412Z,18.14
2017-07-04T00:16:47.944Z,18.17
2017-07-04T00:17:28.476Z,18.12
2017-07-04T00:18:09.011Z,18.1
2017-07-04T00:18:49.553Z,18.12
2017-07-04T00:19:30.086Z,18.12
2017-07-04T00:21:08.901Z,18.21
2017-07-04T00:21:49.462Z,18.1
2017-07-04T00:22:30.004Z,18.1
2017-07-04T00:23:10.545Z,18.11
2017-07-04T00:23:51.079Z,18.1
2017-07-04T00:24:31.605Z,18.11
2017-07-04T00:25:12.139Z,18.08
2017-07-04T00:25:52.678Z,18.03
2017-07-04T00:26:33.217Z,18.05
2017-07-04T00:27:13.754Z,17.97
2017-07-04T00:27:54.296Z,17.92
2017-07-04T00:28:34.836Z,17.95
2017-07-04T00:29:15.377Z,17.95
2017-07-04T00:29:55.899Z,18.05
2017-07-04T00:30:36.428Z,18.02
2017-07-04T00:31:16.972Z,17.95
2017-07-04T00:31:57.510Z,17.96
2017-07-04T00:32:38.079Z,17.92
2017-07-04T00:33:18.613Z,17.92
2017-07-04T00:35:17.750Z,17.75
2017-07-04T00:35:58.292Z,17.78
2017-07-04T00:36:38.831Z,17.79
2017-07-04T00:37:19.375Z,17.71
2017-07-04T00:37:59.933Z,17.71
2017-07-04T00:38:40.446Z,17.72
2017-07-04T00:39:20.989Z,17.72
2017-07-04T00:40:01.523Z,17.68
2017-07-04T00:40:42.054Z,17.7
2017-07-04T00:41:22.594Z,17.62
2017-07-04T00:42:03.130Z,17.59
2017-07-04T00:42:43.673Z,17.62
2017-07-04T00:43:24.211Z,17.55
2017-07-04T00:44:04.746Z,17.58
2017-07-04T00:44:45.272Z,17.52
2017-07-04T00:45:25.805Z,17.54
2017-07-04T00:46:06.347Z,17.51
2017-07-04T00:46:46.886Z,17.48
2017-07-04T00:47:27.426Z,17.43
2017-07-04T00:48:07.963Z,17.41
2017-07-04T00:48:48.495Z,17.4
2017-07-04T00:49:29.047Z,17.43
2017-07-04T00:50:09.599Z,17.37
2017-07-04T00:50:50.147Z,17.41
2017-07-04T00:51:30.689Z,17.38
2017-07-04T00:52:11.242Z,17.49
2017-07-04T00:52:51.779Z,17.36
2017-07-04T00:53:32.315Z,17.4
2017-07-04T00:54:12.842Z,17.38
2017-07-04T00:54:53.406Z,17.4
2017-07-04T00:55:33.924Z,17.37
2017-07-04T00:56:14.459Z,17.4
2017-07-04T00:56:55.000Z,17.38
2017-07-04T00:57:35.542Z,17.28
2017-07-04T00:58:16.069Z,17.3
2017-07-04T00:58:56.652Z,17.4
2017-07-04T00:59:37.203Z,17.33
2017-07-04T01:00:17.746Z,17.31
2017-07-04T01:00:58.273Z,17.44
2017-07-04T01:01:38.813Z,17.44
2017-07-04T01:02:19.350Z,17.38
2017-07-04T01:02:59.899Z,17.38
2017-07-04T01:03:40.433Z,17.38
2017-07-04T01:04:20.975Z,17.38
2017-07-04T01:05:01.514Z,17.37
2017-07-04T01:05:42.056Z,17.37
2017-07-04T01:06:22.583Z,17.41
2017-07-04T01:07:03.121Z,17.33
2017-07-04T01:07:43.657Z,17.44
2017-07-04T01:08:24.199Z,17.41
2017-07-04T01:09:04.733Z,17.3
2017-07-04T01:09:45.279Z,17.31
2017-07-04T01:10:25.818Z,17.28
2017-07-04T01:11:06.364Z,17.3
2017-07-04T01:11:46.882Z,17.33
2017-07-04T01:12:27.427Z,17.28
2017-07-04T01:13:07.961Z,17.28
2017-07-04T01:13:48.499Z,17.26
2017-07-04T01:14:29.119Z,17.36
2017-07-04T01:15:09.658Z,17.26
2017-07-04T01:15:50.186Z,17.31
2017-07-04T01:16:30.726Z,17.26
2017-07-04T01:17:11.265Z,17.34
2017-07-04T01:17:51.808Z,17.25
2017-07-04T01:18:32.344Z,17.23
2017-07-04T01:19:12.880Z,17.22
2017-07-04T01:19:53.426Z,17.21
2017-07-04T01:20:33.983Z,17.23
2017-07-04T01:21:14.529Z,17.22
2017-07-04T01:21:55.043Z,17.21
2017-07-04T01:22:35.580Z,17.25
2017-07-04T01:23:16.128Z,17.18
2017-07-04T01:23:56.654Z,17.3
2017-07-04T01:24:37.209Z,17.21
2017-07-04T01:25:17.762Z,17.3
2017-07-04T01:25:58.325Z,17.21
2017-07-04T01:26:38.862Z,17.16
2017-07-04T01:27:19.409Z,17.19
2017-07-04T01:27:59.959Z,17.14
2017-07-04T01:28:40.500Z,17.11
2017-07-04T01:29:21.039Z,17.12
2017-07-04T01:30:01.593Z,17.08
2017-07-04T01:30:42.128Z,17.04
2017-07-04T01:31:22.653Z,17.04
2017-07-04T01:32:03.182Z,17.03
2017-07-04T01:32:43.733Z,16.97
2017-07-04T01:33:24.271Z,17.01
2017-07-04T01:34:04.813Z,16.98
2017-07-04T01:34:45.353Z,16.94
2017-07-04T01:35:25.895Z,16.89
2017-07-04T01:36:06.434Z,16.88
2017-07-04T01:36:46.969Z,16.88
2017-07-04T01:37:27.527Z,16.83
2017-07-04T01:38:08.050Z,16.76
2017-07-04T01:40:22.301Z,16.76
2017-07-04T01:41:02.815Z,16.64
2017-07-04T01:41:43.352Z,16.64
2017-07-04T01:43:32.319Z,16.63
2017-07-04T01:44:12.789Z,16.67
2017-07-04T01:44:53.340Z,16.68
2017-07-04T01:45:33.875Z,16.66
2017-07-04T01:46:14.415Z,16.61
2017-07-04T01:46:54.950Z,16.57
2017-07-04T01:47:35.479Z,16.6
2017-07-04T01:48:16.027Z,16.58
2017-07-04T01:48:56.561Z,16.57
2017-07-04T01:49:37.100Z,16.52
2017-07-04T01:50:17.637Z,16.58
2017-07-04T01:50:58.171Z,16.48
2017-07-04T01:51:38.704Z,16.45
2017-07-04T01:52:19.234Z,16.45
2017-07-04T01:52:59.781Z,16.45
2017-07-04T01:53:40.311Z,16.57
2017-07-04T01:54:20.854Z,16.46
2017-07-04T01:55:01.428Z,16.52
2017-07-04T01:55:41.950Z,16.49
2017-07-04T01:56:22.558Z,16.48
2017-07-04T01:57:03.074Z,16.43
2017-07-04T01:57:43.606Z,16.43
2017-07-04T01:58:24.146Z,16.46
2017-07-04T01:59:04.674Z,16.39
2017-07-04T01:59:45.216Z,16.45
2017-07-04T02:00:25.752Z,16.43
2017-07-04T02:01:06.293Z,16.42
2017-07-04T02:01:46.830Z,16.41
2017-07-04T02:02:27.372Z,16.42
2017-07-04T02:03:07.908Z,16.39
2017-07-04T02:03:48.451Z,16.43
2017-07-04T02:04:28.987Z,16.43
2017-07-04T02:05:09.526Z,16.41
2017-07-04T02:05:50.069Z,16.43
2017-07-04T02:06:30.615Z,16.39
2017-07-04T02:07:11.178Z,16.39
2017-07-04T02:07:51.719Z,16.46
2017-07-04T02:08:32.254Z,16.41
2017-07-04T02:09:12.792Z,16.42
2017-07-04T02:09:53.332Z,16.45
2017-07-04T02:10:33.866Z,16.42
2017-07-04T02:11:14.419Z,16.48
2017-07-04T02:11:54.957Z,16.53
2017-07-04T02:12:35.496Z,16.48
2017-07-04T02:13:16.032Z,16.5
2017-07-04T02:13:56.578Z,16.56
2017-07-04T02:14:37.117Z,16.48
2017-07-04T02:15:17.639Z,16.52
2017-07-04T02:15:58.172Z,16.56
2017-07-04T02:16:38.725Z,16.61
2017-07-04T02:17:19.272Z,16.6
2017-07-04T02:17:59.810Z,16.58
2017-07-04T02:18:40.361Z,16.64
2017-07-04T02:19:20.919Z,16.61
2017-07-04T02:20:01.464Z,16.53
2017-07-04T02:20:42.005Z,16.61
2017-07-04T02:21:22.544Z,16.57
2017-07-04T02:22:03.084Z,16.58
2017-07-04T02:22:43.623Z,16.56
2017-07-04T02:23:24.151Z,16.45
2017-07-04T02:24:04.691Z,16.57
2017-07-04T02:24:45.229Z,16.5
2017-07-04T02:25:25.779Z,16.56
2017-07-04T02:26:06.344Z,16.6
2017-07-04T02:26:46.859Z,16.58
2017-07-04T02:27:27.399Z,16.56
2017-07-04T02:28:07.944Z,16.53
2017-07-04T02:28:48.462Z,16.49
2017-07-04T02:29:28.988Z,16.48
2017-07-04T02:30:09.538Z,16.5
2017-07-04T02:30:50.077Z,16.46
2017-07-04T02:31:30.667Z,16.48
2017-07-04T02:32:11.211Z,16.48
2017-07-04T02:32:51.737Z,16.43
2017-07-04T02:33:32.271Z,16.5
2017-07-04T02:34:12.805Z,16.48
2017-07-04T02:34:53.337Z,16.45
2017-07-04T02:35:33.861Z,16.38
2017-07-04T02:36:14.404Z,16.38
2017-07-04T02:36:54.939Z,16.41
2017-07-04T02:37:35.476Z,16.38
2017-07-04T02:38:16.024Z,16.27
2017-07-04T02:38:56.558Z,16.3
2017-07-04T02:39:37.104Z,16.3
2017-07-04T02:40:17.648Z,16.27
2017-07-04T02:40:58.167Z,16.28
2017-07-04T02:41:38.705Z,16.28
2017-07-04T02:42:19.246Z,16.33
2017-07-04T02:42:59.788Z,16.25
2017-07-04T02:43:40.320Z,16.28
2017-07-04T02:44:20.860Z,16.28
2017-07-04T02:45:01.393Z,16.21
2017-07-04T02:45:41.918Z,16.21
2017-07-04T02:46:22.472Z,16.28
2017-07-04T02:47:02.999Z,16.25
2017-07-04T02:47:43.533Z,16.11
2017-07-04T02:48:24.081Z,16.12
2017-07-04T02:49:04.617Z,16.15
2017-07-04T02:49:45.157Z,16.12
2017-07-04T02:50:25.694Z,16.12
2017-07-04T02:51:06.230Z,16.08
2017-07-04T02:51:46.762Z,16.15
2017-07-04T02:52:27.346Z,16.12
2017-07-04T02:53:07.922Z,16.17
2017-07-04T02:53:48.420Z,16.08
2017-07-04T02:54:28.957Z,16.07
2017-07-04T02:55:09.501Z,16.07
2017-07-04T02:55:50.051Z,16.08
2017-07-04T02:56:30.594Z,16.08
2017-07-04T02:57:11.138Z,16.01
2017-07-04T02:57:51.680Z,16.01
2017-07-04T02:58:32.217Z,16.02
2017-07-04T02:59:12.763Z,16.07
2017-07-04T02:59:53.286Z,16.02
2017-07-04T03:00:33.816Z,16.01
2017-07-04T03:01:14.363Z,16.05
2017-07-04T03:01:54.905Z,16.01
2017-07-04T03:02:35.436Z,16.02
2017-07-04T03:03:15.978Z,15.94
2017-07-04T03:03:56.512Z,16.04
2017-07-04T03:04:37.043Z,16.04
2017-07-04T03:05:17.567Z,15.96
2017-07-04T03:05:58.115Z,16.04
2017-07-04T03:06:38.657Z,15.93
2017-07-04T03:07:19.189Z,15.93
2017-07-04T03:07:59.772Z,15.97
2017-07-04T03:08:40.322Z,15.9
2017-07-04T03:09:20.852Z,15.94
2017-07-04T03:10:01.389Z,15.89
2017-07-04T03:10:41.931Z,15.87
2017-07-04T03:11:22.465Z,15.87
2017-07-04T03:12:02.993Z,15.82
2017-07-04T03:12:43.534Z,15.8
2017-07-04T03:13:24.099Z,15.8
2017-07-04T03:14:04.674Z,15.8
2017-07-04T03:14:45.170Z,15.8
2017-07-04T03:15:25.709Z,15.8
2017-07-04T03:16:06.248Z,15.76
2017-07-04T03:16:46.787Z,15.71
2017-07-04T03:17:27.329Z,15.76
2017-07-04T03:18:07.857Z,15.78
2017-07-04T03:18:48.394Z,15.67
2017-07-04T03:19:28.938Z,15.69
2017-07-04T03:20:09.507Z,15.68
2017-07-04T03:20:50.037Z,15.69
2017-07-04T03:21:30.546Z,15.71
2017-07-04T03:22:11.088Z,15.6
2017-07-04T03:22:51.627Z,15.69
2017-07-04T03:23:32.177Z,15.65
2017-07-04T03:24:12.703Z,15.62
2017-07-04T03:24:53.239Z,15.56
2017-07-04T03:25:33.776Z,15.68
2017-07-04T03:26:14.353Z,15.69
2017-07-04T03:26:54.874Z,15.56
2017-07-04T03:27:35.448Z,15.59
2017-07-04T03:28:15.975Z,15.57
2017-07-04T03:28:56.521Z,15.59
2017-07-04T03:29:37.059Z,15.62
2017-07-04T03:30:17.601Z,15.57
2017-07-04T03:30:58.133Z,15.59
2017-07-04T03:31:38.801Z,15.54
2017-07-04T03:32:19.352Z,15.53
2017-07-04T03:32:59.894Z,15.51
2017-07-04T03:33:40.434Z,15.5
2017-07-04T03:34:20.979Z,15.53
2017-07-04T03:35:01.513Z,15.5
2017-07-04T03:35:42.077Z,15.49
2017-07-04T03:36:22.617Z,15.5
2017-07-04T03:37:03.169Z,15.47
2017-07-04T03:37:43.712Z,15.47
2017-07-04T03:38:24.253Z,15.46
2017-07-04T03:39:04.797Z,15.51
2017-07-04T03:39:45.339Z,15.5
2017-07-04T03:40:25.874Z,15.46
2017-07-04T03:41:06.412Z,15.47
2017-07-04T03:41:46.981Z,15.46
2017-07-04T03:42:27.524Z,15.41
2017-07-04T03:43:08.068Z,15.49
2017-07-04T03:43:48.602Z,15.41
2017-07-04T03:44:29.146Z,15.44
2017-07-04T03:45:09.681Z,15.46
2017-07-04T03:45:50.212Z,15.44
2017-07-04T03:46:30.751Z,15.38
2017-07-04T03:47:11.293Z,15.38
2017-07-04T03:47:51.834Z,15.39
2017-07-04T03:48:32.363Z,15.44
2017-07-04T03:49:12.895Z,15.39
2017-07-04T03:49:53.431Z,15.32
2017-07-04T03:50:33.966Z,15.39
2017-07-04T03:51:14.515Z,15.47
2017-07-04T03:51:55.068Z,15.46
2017-07-04T03:52:35.581Z,15.51
2017-07-04T03:53:16.124Z,15.47
2017-07-04T03:53:56.650Z,15.41
2017-07-04T03:54:37.183Z,15.49
2017-07-04T03:55:17.718Z,15.44
2017-07-04T03:55:58.262Z,15.47
2017-07-04T03:56:38.820Z,15.5
2017-07-04T03:57:19.363Z,15.46
2017-07-04T03:57:59.892Z,15.5
2017-07-04T03:58:40.432Z,15.46
2017-07-04T03:59:20.966Z,15.49
2017-07-04T04:00:01.500Z,15.51
2017-07-04T04:00:42.032Z,15.51
2017-07-04T04:01:22.574Z,15.68
2017-07-04T04:02:03.118Z,15.6
2017-07-04T04:02:43.661Z,15.59
2017-07-04T04:03:24.228Z,15.6
2017-07-04T04:04:04.812Z,15.56
2017-07-04T04:04:45.311Z,15.62
2017-07-04T04:05:25.848Z,15.6
2017-07-04T04:06:06.384Z,15.6
2017-07-04T04:06:46.927Z,15.69
2017-07-04T04:07:27.456Z,15.69
2017-07-04T04:08:07.999Z,15.67
2017-07-04T04:08:48.536Z,15.68
2017-07-04T04:09:29.066Z,15.72
2017-07-04T04:10:09.613Z,15.64
2017-07-04T04:10:50.157Z,15.67
2017-07-04T04:11:30.690Z,15.67
2017-07-04T04:12:11.230Z,15.8
2017-07-04T04:12:51.763Z,15.68
2017-07-04T04:13:32.304Z,15.8
2017-07-04T04:14:12.841Z,15.8
2017-07-04T04:14:53.383Z,15.82
2017-07-04T04:15:33.911Z,15.76
2017-07-04T04:16:14.438Z,15.83
2017-07-04T04:16:54.955Z,15.9
2017-07-04T04:17:35.495Z,15.89
2017-07-04T04:18:16.027Z,15.89
2017-07-04T04:18:56.573Z,15.87
2017-07-04T04:19:37.112Z,15.94
2017-07-04T04:20:17.637Z,15.96
2017-07-04T04:20:58.165Z,15.96
2017-07-04T04:21:38.692Z,16.01
2017-07-04T04:22:19.229Z,16.02
2017-07-04T04:22:59.752Z,15.89
2017-07-04T04:23:40.304Z,16
2017-07-04T04:24:20.841Z,15.97
2017-07-04T04:25:01.383Z,16.01
2017-07-04T04:25:41.998Z,16.09
2017-07-04T04:26:22.513Z,16.05
2017-07-04T04:27:03.157Z,16.02
2017-07-04T04:27:43.708Z,16.05
2017-07-04T04:28:24.322Z,16.09
2017-07-04T04:29:04.914Z,16
2017-07-04T04:29:45.426Z,16.05
2017-07-04T04:30:25.975Z,16.14
2017-07-04T04:31:06.511Z,16.11
2017-07-04T04:31:47.056Z,16.23
2017-07-04T04:32:27.595Z,16.24
2017-07-04T04:33:08.141Z,16.23
2017-07-04T04:33:48.679Z,16.21
2017-07-04T04:34:29.220Z,16.25
2017-07-04T04:35:09.764Z,16.33
2017-07-04T04:35:50.280Z,16.27
2017-07-04T04:36:30.816Z,16.3
2017-07-04T04:37:11.353Z,16.41
2017-07-04T04:37:51.880Z,16.39
2017-07-04T04:38:32.423Z,16.43
2017-07-04T04:39:12.941Z,16.42
2017-07-04T04:39:53.451Z,16.45
2017-07-04T04:40:33.984Z,16.46
2017-07-04T04:41:14.518Z,16.46
2017-07-04T04:41:55.056Z,16.53
2017-07-04T04:42:35.620Z,16.63
2017-07-04T04:43:16.141Z,16.56
2017-07-04T04:43:56.686Z,16.67
2017-07-04T04:44:37.229Z,16.68
2017-07-04T04:45:17.768Z,16.64
2017-07-04T04:45:58.321Z,16.67
2017-07-04T04:46:38.849Z,16.78
2017-07-04T04:47:19.382Z,16.76
2017-07-04T04:47:59.918Z,16.78
2017-07-04T04:48:40.456Z,16.82
2017-07-04T04:49:20.999Z,16.82
2017-07-04T04:50:01.534Z,16.86
2017-07-04T04:50:42.063Z,16.86
2017-07-04T04:51:22.602Z,16.91
2017-07-04T04:52:03.131Z,16.88
2017-07-04T04:52:43.672Z,16.85
2017-07-04T04:53:24.198Z,16.96
2017-07-04T04:54:04.743Z,16.94
2017-07-04T04:54:45.290Z,16.91
2017-07-04T04:55:25.823Z,16.91
2017-07-04T04:56:06.354Z,17
2017-07-04T04:56:46.897Z,16.98
2017-07-04T04:57:27.434Z,17.01
2017-07-04T04:58:07.973Z,17.01
2017-07-04T04:58:48.509Z,17.16
2017-07-04T04:59:29.050Z,17.06
2017-07-04T05:00:09.595Z,17.14
2017-07-04T05:00:50.176Z,17.18
2017-07-04T05:01:30.662Z,17.16
2017-07-04T05:02:11.195Z,17.28
2017-07-04T05:02:51.739Z,17.28
2017-07-04T05:03:32.290Z,17.33
2017-07-04T05:04:12.832Z,17.3
2017-07-04T05:04:53.360Z,17.28
2017-07-04T05:05:33.909Z,17.36
2017-07-04T05:06:14.451Z,17.38
2017-07-04T05:06:55.005Z,17.3
2017-07-04T05:07:35.537Z,17.26
2017-07-04T05:08:16.076Z,17.3
2017-07-04T05:08:56.661Z,17.31
2017-07-04T05:09:37.201Z,17.34
2017-07-04T05:10:17.745Z,17.28
2017-07-04T05:10:58.292Z,17.28
2017-07-04T05:11:38.834Z,17.26
2017-07-04T05:12:19.378Z,17.26
2017-07-04T05:12:59.924Z,17.26
2017-07-04T05:13:40.471Z,17.28
2017-07-04T05:14:21.011Z,17.31
2017-07-04T05:15:01.560Z,17.28
2017-07-04T05:15:42.095Z,17.28
2017-07-04T05:16:22.637Z,17.28
2017-07-04T05:17:03.173Z,17.28
2017-07-04T05:17:43.716Z,17.26
2017-07-04T05:18:24.260Z,17.28
2017-07-04T05:19:04.803Z,17.3
2017-07-04T05:19:45.352Z,17.3
2017-07-04T05:20:25.889Z,17.37
2017-07-04T05:21:06.428Z,17.33
2017-07-04T05:21:46.968Z,17.43
2017-07-04T05:22:27.505Z,17.43
2017-07-04T05:23:08.043Z,17.43
2017-07-04T05:23:48.575Z,17.43
2017-07-04T05:24:29.112Z,17.43
2017-07-04T05:25:09.658Z,17.48
2017-07-04T05:25:50.197Z,17.55
2017-07-04T05:26:30.742Z,17.49
2017-07-04T05:27:11.283Z,17.58
2017-07-04T05:27:51.824Z,17.54
2017-07-04T05:28:32.370Z,17.48
2017-07-04T05:29:12.918Z,17.54
2017-07-04T05:29:53.438Z,17.51
2017-07-04T05:30:33.970Z,17.54
2017-07-04T05:31:14.525Z,17.62
2017-07-04T05:31:55.077Z,17.59
2017-07-04T05:32:35.618Z,17.64
2017-07-04T05:33:16.167Z,17.58
2017-07-04T05:33:56.715Z,17.56
2017-07-04T05:34:37.251Z,17.62
2017-07-04T05:35:17.799Z,17.64
2017-07-04T05:35:58.359Z,17.66
2017-07-04T05:36:38.894Z,17.59
2017-07-04T05:37:19.432Z,17.59
2017-07-04T05:37:59.972Z,17.63
2017-07-04T05:38:40.514Z,17.62
2017-07-04T05:39:21.045Z,17.58
2017-07-04T05:40:01.576Z,17.59
2017-07-04T05:40:42.135Z,17.56
2017-07-04T05:41:22.672Z,17.56
2017-07-04T05:42:03.206Z,17.55
2017-07-04T05:42:43.767Z,17.56
2017-07-04T05:43:24.308Z,17.56
2017-07-04T05:44:04.932Z,17.56
2017-07-04T05:44:45.439Z,17.64
2017-07-04T05:45:25.946Z,17.54
2017-07-04T05:46:06.530Z,17.59
2017-07-04T05:46:47.051Z,17.58
2017-07-04T05:47:27.817Z,17.66
2017-07-04T05:48:08.577Z,17.72
2017-07-04T05:48:49.084Z,17.72
2017-07-04T05:49:29.625Z,17.75
2017-07-04T05:50:10.163Z,17.78
2017-07-04T05:50:50.717Z,17.81
2017-07-04T05:51:31.287Z,17.77
2017-07-04T05:52:11.816Z,17.77
2017-07-04T05:52:52.359Z,17.79
2017-07-04T05:53:32.911Z,17.84
2017-07-04T05:54:13.456Z,17.9
2017-07-04T05:54:54.018Z,17.93
2017-07-04T05:55:34.562Z,17.89
2017-07-04T05:56:15.152Z,17.92
2017-07-04T05:56:55.645Z,17.92
2017-07-04T05:57:36.174Z,17.89
2017-07-04T05:58:16.717Z,17.95
2017-07-04T05:58:57.240Z,17.96
2017-07-04T05:59:37.803Z,17.97
2017-07-04T06:00:18.263Z,17.92
2017-07-04T06:00:58.785Z,17.89
2017-07-04T06:01:39.364Z,17.92
2017-07-04T06:02:19.874Z,17.95
2017-07-04T06:03:00.365Z,17.93
2017-07-04T06:03:40.903Z,17.99
2017-07-04T06:04:21.431Z,17.93
2017-07-04T06:05:01.922Z,18.07
2017-07-04T06:05:42.507Z,17.99
2017-07-04T06:06:22.996Z,17.99
2017-07-04T06:07:03.538Z,18.03
2017-07-04T06:07:44.023Z,18.05
2017-07-04T06:08:24.550Z,18.07
2017-07-04T06:09:05.060Z,18.12
2017-07-04T06:09:45.611Z,18.2
2017-07-04T06:10:26.157Z,18.15
2017-07-04T06:11:06.661Z,18.25
2017-07-04T06:11:47.173Z,18.27
2017-07-04T06:12:27.698Z,18.21
2017-07-04T06:13:08.214Z,18.35
2017-07-04T06:13:48.793Z,18.26
2017-07-04T06:14:29.288Z,18.29
2017-07-04T06:15:09.837Z,18.35
2017-07-04T06:15:50.394Z,18.36
2017-07-04T06:16:30.928Z,18.36
2017-07-04T06:17:11.405Z,18.5
2017-07-04T06:17:51.932Z,18.52
2017-07-04T06:18:32.481Z,18.48
2017-07-04T06:19:13.072Z,18.33
2017-07-04T06:19:53.677Z,18.37
2017-07-04T06:20:34.207Z,18.33
2017-07-04T06:21:14.758Z,18.44
2017-07-04T06:21:55.303Z,18.42
2017-07-04T06:22:35.873Z,18.5
2017-07-04T06:23:16.431Z,18.55
2017-07-04T06:23:57.055Z,18.48
2017-07-04T06:24:37.602Z,18.54
2017-07-04T06:25:18.042Z,18.54
2017-07-04T06:25:58.593Z,18.57
2017-07-04T06:26:39.100Z,18.63
2017-07-04T06:27:19.616Z,18.67
2017-07-04T06:28:00.128Z,18.7
2017-07-04T06:28:40.665Z,18.76
2017-07-04T06:29:21.183Z,18.78
2017-07-04T06:30:01.672Z,18.85
2017-07-04T06:30:42.191Z,18.88
2017-07-04T06:31:22.685Z,18.99
2017-07-04T06:32:03.179Z,18.91
2017-07-04T06:32:43.704Z,18.94
2017-07-04T06:33:24.190Z,19
2017-07-04T06:34:04.691Z,19
2017-07-04T06:34:45.277Z,18.99
2017-07-04T06:35:25.766Z,18.92
2017-07-04T06:36:06.261Z,19.02
2017-07-04T06:36:46.753Z,19.06
2017-07-04T06:37:27.287Z,19.02
2017-07-04T06:38:07.771Z,19.13
2017-07-04T06:38:48.301Z,19.13
2017-07-04T06:39:28.794Z,19.14
2017-07-04T06:40:09.298Z,19.19
2017-07-04T06:40:49.838Z,19.23
2017-07-04T06:41:30.344Z,19.19
2017-07-04T06:42:10.897Z,19.29
2017-07-04T06:42:51.411Z,19.28
2017-07-04T06:43:31.970Z,19.32
2017-07-04T06:44:12.522Z,19.23
2017-07-04T06:44:53.053Z,19.22
2017-07-04T06:45:33.618Z,19.08
2017-07-04T06:46:14.181Z,19.06
2017-07-04T06:46:54.719Z,19.08
2017-07-04T06:47:35.252Z,19
2017-07-04T06:48:15.798Z,18.88
2017-07-04T06:48:56.343Z,18.91
2017-07-04T06:49:36.860Z,19
2017-07-04T06:50:17.403Z,18.9
2017-07-04T06:50:57.938Z,18.94
2017-07-04T06:51:38.477Z,18.9
2017-07-04T06:52:19.051Z,18.8
2017-07-04T06:52:59.560Z,18.8
2017-07-04T06:53:40.061Z,18.75
2017-07-04T06:54:20.622Z,18.66
2017-07-04T06:55:01.143Z,18.65
2017-07-04T06:55:41.659Z,18.67
2017-07-04T06:56:22.185Z,18.66
2017-07-04T06:57:02.728Z,18.63
2017-07-04T06:57:43.256Z,18.55
2017-07-04T06:58:23.773Z,18.66
2017-07-04T06:59:04.269Z,18.72
2017-07-04T06:59:44.824Z,18.8
2017-07-04T07:00:25.339Z,18.78
2017-07-04T07:01:05.853Z,18.81
2017-07-04T07:01:46.414Z,18.87
2017-07-04T07:02:26.925Z,18.87
2017-07-04T07:03:07.481Z,18.95
2017-07-04T07:03:47.997Z,19.04
2017-07-04T07:04:28.481Z,18.95
2017-07-04T07:05:08.999Z,19.04
2017-07-04T07:05:49.553Z,19.08
2017-07-04T07:06:30.061Z,19.06
2017-07-04T07:07:10.574Z,19.18
2017-07-04T07:07:51.074Z,19.19
2017-07-04T07:08:31.619Z,19.18
2017-07-04T07:09:12.114Z,19.26
2017-07-04T07:09:52.667Z,19.32
2017-07-04T07:10:33.196Z,19.31
2017-07-04T07:11:13.753Z,19.39
2017-07-04T07:11:54.223Z,19.5
2017-07-04T07:12:34.758Z,19.61
2017-07-04T07:13:15.269Z,19.68
2017-07-04T07:13:55.837Z,19.73
2017-07-04T07:14:36.335Z,19.74
2017-07-04T07:15:16.838Z,19.77
2017-07-04T07:15:57.358Z,19.86
2017-07-04T07:16:37.910Z,19.81
2017-07-04T07:17:18.445Z,19.88
2017-07-04T07:17:58.964Z,19.87
2017-07-04T07:18:39.487Z,19.92
2017-07-04T07:19:20.018Z,19.95
2017-07-04T07:20:00.575Z,20.06
2017-07-04T07:20:41.115Z,20.18
2017-07-04T07:21:21.679Z,20.23
2017-07-04T07:22:02.157Z,20.38
2017-07-04T07:22:42.664Z,20.43
2017-07-04T07:23:23.162Z,20.55
2017-07-04T07:24:03.676Z,20.73
2017-07-04T07:24:44.232Z,20.72
2017-07-04T07:25:24.731Z,20.72
2017-07-04T07:26:05.256Z,20.62
2017-07-04T07:26:45.803Z,20.54
2017-07-04T07:27:26.322Z,20.54
2017-07-04T07:28:06.872Z,20.48
2017-07-04T07:28:47.439Z,20.39
2017-07-04T07:29:27.932Z,20.31
2017-07-04T07:30:08.455Z,20.24
2017-07-04T07:30:48.969Z,20.28
2017-07-04T07:31:29.479Z,20.23
2017-07-04T07:32:09.997Z,20.21
2017-07-04T07:32:50.520Z,20.18
2017-07-04T07:33:31.066Z,20.01
2017-07-04T07:34:11.664Z,19.86
2017-07-04T07:34:52.278Z,19.78
2017-07-04T07:35:32.821Z,19.69
2017-07-04T07:36:13.374Z,19.71
2017-07-04T07:36:53.949Z,19.8
2017-07-04T07:37:34.408Z,19.78
2017-07-04T07:38:14.938Z,19.69
2017-07-04T07:38:55.480Z,19.69
2017-07-04T07:39:36.001Z,19.74
2017-07-04T07:40:16.506Z,19.76
2017-07-04T07:40:57.069Z,19.77
2017-07-04T07:41:37.565Z,19.88
2017-07-04T07:42:18.079Z,19.88
2017-07-04T07:42:58.617Z,19.96
2017-07-04T07:43:39.158Z,19.95
2017-07-04T07:44:19.651Z,20.16
2017-07-04T07:45:00.162Z,20.17
2017-07-04T07:45:40.689Z,20.23
2017-07-04T07:46:21.227Z,20.32
2017-07-04T07:47:01.735Z,20.47
2017-07-04T07:47:42.263Z,20.57
2017-07-04T07:48:22.778Z,20.62
2017-07-04T07:49:03.332Z,20.73
2017-07-04T07:49:43.912Z,20.8
2017-07-04T07:50:24.401Z,20.97
2017-07-04T07:51:04.923Z,21.13
2017-07-04T07:51:45.435Z,21.24
2017-07-04T07:52:25.939Z,21.4
2017-07-04T07:53:06.471Z,21.53
2017-07-04T07:53:47.023Z,21.69
2017-07-04T07:54:27.574Z,21.82
2017-07-04T07:55:08.073Z,21.84
2017-07-04T07:55:48.604Z,21.82
2017-07-04T07:56:29.148Z,21.75
2017-07-04T07:57:09.684Z,21.69
2017-07-04T07:57:50.306Z,21.53
2017-07-04T07:58:30.786Z,21.34
2017-07-04T07:59:11.304Z,21.37
2017-07-04T07:59:51.813Z,21.37
2017-07-04T08:00:32.401Z,21.35
2017-07-04T08:01:12.897Z,21.5
2017-07-04T08:01:53.400Z,21.53
2017-07-04T08:02:33.939Z,21.61
2017-07-04T08:03:14.465Z,21.71
2017-07-04T08:03:54.979Z,21.77
2017-07-04T08:04:35.512Z,21.83
2017-07-04T08:05:16.008Z,21.92
2017-07-04T08:05:56.511Z,22.06
2017-07-04T08:06:37.053Z,22.1
2017-07-04T08:07:17.558Z,22.07
2017-07-04T08:07:58.125Z,22.25
2017-07-04T08:08:38.613Z,22.47
2017-07-04T08:09:19.136Z,22.64
2017-07-04T08:09:59.644Z,22.68
2017-07-04T08:10:40.142Z,22.97
2017-07-04T08:11:20.708Z,23.05
2017-07-04T08:12:01.213Z,23.17
2017-07-04T08:12:41.756Z,23.33
2017-07-04T08:13:22.284Z,23.48
2017-07-04T08:14:02.776Z,23.63
2017-07-04T08:14:43.333Z,23.75
2017-07-04T08:15:23.821Z,23.75
2017-07-04T08:16:04.355Z,23.79
2017-07-04T08:16:44.861Z,23.9
2017-07-04T08:17:25.375Z,23.95
2017-07-04T08:18:05.930Z,23.95
2017-07-04T08:18:46.438Z,23.87
2017-07-04T08:19:26.946Z,23.63
2017-07-04T08:20:07.488Z,23.65
2017-07-04T08:20:48.006Z,23.5
2017-07-04T08:21:28.521Z,23.46
2017-07-04T08:22:09.040Z,23.38
2017-07-04T08:22:49.557Z,23.46
2017-07-04T08:23:30.100Z,23.55
2017-07-04T08:24:10.615Z,23.75
2017-07-04T08:24:51.198Z,24.09
2017-07-04T08:25:31.693Z,24.27
2017-07-04T08:26:12.204Z,24.47
2017-07-04T08:26:52.722Z,24.73
2017-07-04T08:27:33.299Z,24.76
2017-07-04T08:28:13.781Z,24.62
2017-07-04T08:28:54.283Z,24.55
2017-07-04T08:29:34.796Z,24.39
2017-07-04T08:30:15.326Z,24.25
2017-07-04T08:30:55.837Z,24.16
2017-07-04T08:31:36.348Z,24.15
2017-07-04T08:32:16.864Z,24.22
2017-07-04T08:32:57.400Z,24.4
2017-07-04T08:33:37.901Z,24.58
2017-07-04T08:34:18.406Z,24.67
2017-07-04T08:34:58.955Z,24.87
2017-07-04T08:35:39.458Z,25.09
2017-07-04T08:36:20.003Z,25.1
2017-07-04T08:37:00.521Z,25.02
2017-07-04T08:37:41.042Z,25.13
2017-07-04T08:38:21.562Z,25.24
2017-07-04T08:39:02.087Z,25.46
2017-07-04T08:39:42.649Z,25.73
2017-07-04T08:40:23.200Z,25.69
2017-07-04T08:41:03.721Z,25.95
2017-07-04T08:41:44.267Z,26.23
2017-07-04T08:42:24.777Z,26.67
2017-07-04T08:43:05.364Z,26.87
2017-07-04T08:43:45.933Z,26.85
2017-07-04T08:44:26.456Z,26.62
2017-07-04T08:45:06.994Z,26.4
2017-07-04T08:45:47.520Z,26.45
2017-07-04T08:46:28.043Z,26.62
2017-07-04T08:47:08.649Z,26.76
2017-07-04T08:47:49.148Z,27
2017-07-04T08:48:29.731Z,27.18
2017-07-04T08:49:10.265Z,27.39